createdAt,value
2022-11-18T00:04:40.152Z,9.10
2022-11-18T00:09:42.971Z,9.52
2022-11-18T00:14:47.745Z,10.38
2022-11-18T00:19:50.608Z,11.05
2022-11-18T00:24:53.401Z,11.90
2022-11-18T00:29:57.623Z,10.50
2022-11-18T00:35:00.501Z,11.10
2022-11-18T00:40:03.345Z,11.07
2022-11-18T00:45:08.397Z,10.95
2022-11-18T00:50:11.452Z,9.60
2022-11-18T00:55:14.332Z,11.15
2022-11-18T01:00:19.158Z,11.57
2022-11-18T01:05:22.069Z,10.27
2022-11-18T01:10:24.893Z,11.30
2022-11-18T01:15:29.037Z,11.57
2022-11-18T01:20:33.133Z,11.05
2022-11-18T01:25:37.262Z,12.10
2022-11-18T01:30:43.089Z,12.68
2022-11-18T01:35:46.292Z,12.27
2022-11-18T01:40:49.176Z,11.82
2022-11-18T01:45:54.885Z,12.55
2022-11-18T01:51:01.796Z,10.05
2022-11-18T01:56:09.207Z,10.85
2022-11-18T02:01:14.156Z,12.50
2022-11-18T02:06:17.656Z,12.63
2022-11-18T02:11:37.797Z,11.93
2022-11-18T02:17:01.594Z,13.43
2022-11-18T02:22:19.844Z,11.15
2022-11-18T02:27:57.472Z,14.10
2022-11-18T02:33:08.812Z,13.57
2022-11-18T02:38:15.537Z,14.85
2022-11-18T02:43:22.958Z,15.45
2022-11-18T02:48:31.147Z,15.13
2022-11-18T02:53:36.069Z,14.48
2022-11-18T02:58:39.000Z,13.20
2022-11-18T03:03:43.130Z,12.88
2022-11-18T03:08:51.222Z,14.63
2022-11-18T03:14:07.831Z,15.13
2022-11-18T03:19:21.414Z,15.05
2022-11-18T03:24:34.439Z,14.77
2022-11-18T03:29:41.442Z,13.50
2022-11-18T03:34:50.416Z,15.23
2022-11-18T03:39:55.823Z,13.40
2022-11-18T03:45:06.021Z,14.57
2022-11-18T03:50:16.913Z,12.63
2022-11-18T03:55:24.698Z,12.10
2022-11-18T04:00:30.921Z,13.88
2022-11-18T04:05:39.802Z,12.23
2022-11-18T04:10:48.106Z,13.80
2022-11-18T04:15:51.292Z,12.25
2022-11-18T04:20:55.523Z,13.43
2022-11-18T04:25:58.312Z,12.20
2022-11-18T04:31:01.028Z,12.68
2022-11-18T04:36:05.685Z,13.45
2022-11-18T04:41:08.454Z,12.85
2022-11-18T04:46:11.199Z,12.35
2022-11-18T04:51:15.401Z,12.68
2022-11-18T04:56:18.109Z,13.50
2022-11-18T05:01:20.938Z,12.93
2022-11-18T05:06:25.450Z,13.90
2022-11-18T05:11:46.022Z,13.45
2022-11-18T05:16:48.812Z,12.95
2022-11-18T05:21:53.393Z,11.65
2022-11-18T05:26:56.234Z,15.05
2022-11-18T05:31:59.127Z,14.65
2022-11-18T05:37:03.414Z,13.93
2022-11-18T05:42:24.032Z,14.20
2022-11-18T05:47:27.056Z,13.95
2022-11-18T05:52:31.205Z,14.93
2022-11-18T05:57:34.991Z,14.32
2022-11-18T06:02:38.666Z,14.50
2022-11-18T06:07:44.764Z,15.45
2022-11-18T06:12:52.566Z,14.88
2022-11-18T06:18:00.292Z,15.73
2022-11-18T06:23:04.406Z,16.42
2022-11-18T06:28:07.532Z,16.27
2022-11-18T06:33:10.346Z,16.27
2022-11-18T06:38:14.616Z,16.27
2022-11-18T06:43:34.686Z,15.50
2022-11-18T06:48:38.223Z,14.88
2022-11-18T06:53:42.397Z,15.82
2022-11-18T06:58:45.976Z,16.80
2022-11-18T07:03:49.260Z,15.63
2022-11-18T07:08:53.894Z,14.13
2022-11-18T07:13:57.558Z,17.10
2022-11-18T07:19:00.328Z,16.23
2022-11-18T07:24:06.981Z,15.65
2022-11-18T07:29:10.304Z,16.30
2022-11-18T07:34:14.175Z,17.58
2022-11-18T07:39:18.650Z,16.45
2022-11-18T07:44:21.567Z,14.68
2022-11-18T07:49:24.267Z,14.88
2022-11-18T07:54:28.397Z,14.95
2022-11-18T07:59:31.148Z,13.65
2022-11-18T08:04:34.016Z,16.33
2022-11-18T08:09:38.213Z,13.70
2022-11-18T08:14:41.284Z,12.25
2022-11-18T08:19:44.143Z,12.52
2022-11-18T08:24:48.427Z,11.13
2022-11-18T08:29:51.311Z,13.32
2022-11-18T08:34:54.079Z,11.13
2022-11-18T08:39:58.203Z,11.88
2022-11-18T08:45:01.432Z,12.38
2022-11-18T08:50:05.015Z,11.93
2022-11-18T08:55:09.675Z,11.82
2022-11-18T09:00:14.277Z,11.98
2022-11-18T09:05:17.177Z,12.20
2022-11-18T09:10:21.435Z,12.80
2022-11-18T09:15:26.243Z,12.52
2022-11-18T09:20:29.059Z,12.32
2022-11-18T09:25:33.234Z,11.90
2022-11-18T09:30:36.029Z,12.68
2022-11-18T09:35:43.126Z,10.80
2022-11-18T09:40:56.749Z,10.93
2022-11-18T09:46:10.967Z,10.63
2022-11-18T09:51:13.944Z,11.45
2022-11-18T09:56:18.877Z,12.00
2022-11-18T10:01:22.354Z,10.88
2022-11-18T10:06:27.492Z,11.52
2022-11-18T10:11:42.066Z,9.18
2022-11-18T10:16:57.993Z,10.02
2022-11-18T10:22:24.056Z,9.45
2022-11-18T10:27:36.708Z,9.15
2022-11-18T10:32:54.631Z,8.55
2022-11-18T10:38:08.315Z,9.30
2022-11-18T10:43:13.713Z,8.32
2022-11-18T10:48:19.247Z,8.43
2022-11-18T10:53:31.723Z,8.05
2022-11-18T10:58:38.623Z,8.43
2022-11-18T11:03:44.152Z,7.28
2022-11-18T11:08:51.231Z,7.68
2022-11-18T11:14:03.002Z,7.68
2022-11-18T11:19:10.644Z,7.68
2022-11-18T11:24:13.521Z,6.57
2022-11-18T11:29:30.314Z,6.45
2022-11-18T11:34:42.395Z,7.07
2022-11-18T11:40:03.694Z,5.50
2022-11-18T11:45:20.303Z,5.72
2022-11-18T11:50:27.811Z,5.22
2022-11-18T11:55:47.040Z,5.50
2022-11-18T12:01:05.125Z,5.80
2022-11-18T12:06:10.961Z,5.20
2022-11-18T12:11:22.099Z,5.28
2022-11-18T12:16:34.743Z,6.38
2022-11-18T12:21:58.184Z,6.55
2022-11-18T12:27:03.142Z,5.88
2022-11-18T12:32:26.819Z,4.82
2022-11-18T12:37:49.074Z,6.13
2022-11-18T12:43:09.098Z,6.25
2022-11-18T12:48:38.681Z,6.57
2022-11-18T12:53:43.968Z,5.65
2022-11-18T12:58:48.317Z,5.65
2022-11-18T13:03:53.592Z,5.22
2022-11-18T13:09:00.446Z,5.45
2022-11-18T13:14:23.348Z,5.40
2022-11-18T13:19:27.709Z,6.00
2022-11-18T13:24:30.472Z,4.78
2022-11-18T13:29:52.599Z,5.55
2022-11-18T13:35:00.447Z,5.05
2022-11-18T13:40:03.561Z,4.85
2022-11-18T13:45:07.314Z,4.68
2022-11-18T13:50:20.846Z,4.75
2022-11-18T13:55:26.174Z,4.50
2022-11-18T14:00:30.809Z,4.05
2022-11-18T14:05:35.307Z,4.22
2022-11-18T14:10:42.924Z,4.03
2022-11-18T14:15:45.758Z,3.83
2022-11-18T14:20:54.913Z,3.50
2022-11-18T14:25:59.754Z,4.05
2022-11-18T14:31:06.642Z,4.47
2022-11-18T14:36:14.938Z,3.53
2022-11-18T14:41:44.281Z,3.30
2022-11-18T14:46:52.195Z,3.83
2022-11-18T14:51:56.516Z,4.00
2022-11-18T14:57:02.081Z,3.50
2022-11-18T15:02:04.952Z,3.20
2022-11-18T15:07:12.289Z,3.42
2022-11-18T15:12:15.227Z,3.53
2022-11-18T15:17:20.467Z,3.10
2022-11-18T15:22:25.056Z,3.25
2022-11-18T15:27:28.131Z,3.58
2022-11-18T15:32:31.908Z,2.90
2022-11-18T15:37:36.362Z,3.30
2022-11-18T15:42:47.491Z,3.17
2022-11-18T15:47:54.490Z,3.10
2022-11-18T15:52:58.665Z,3.00
2022-11-18T15:58:01.489Z,3.08
2022-11-18T16:03:04.325Z,3.08
2022-11-18T16:08:08.954Z,3.08
2022-11-18T16:13:11.751Z,3.10
2022-11-18T16:18:15.412Z,3.05
2022-11-18T16:23:19.556Z,3.58
2022-11-18T16:28:24.817Z,2.88
2022-11-18T16:33:27.595Z,3.80
2022-11-18T16:38:32.152Z,3.95
2022-11-18T16:43:34.960Z,4.03
2022-11-18T16:48:37.734Z,4.60
2022-11-18T16:53:42.030Z,3.60
2022-11-18T16:58:44.825Z,3.38
2022-11-18T17:03:47.581Z,3.15
2022-11-18T17:08:52.224Z,3.47
2022-11-18T17:13:58.210Z,3.20
2022-11-18T17:19:03.722Z,3.42
2022-11-18T17:24:13.764Z,3.50
2022-11-18T17:29:17.003Z,2.72
2022-11-18T17:34:20.279Z,2.55
2022-11-18T17:39:24.734Z,2.90
2022-11-18T17:44:29.672Z,2.40
2022-11-18T17:49:32.427Z,2.83
2022-11-18T17:54:37.363Z,3.08
2022-11-18T17:59:40.170Z,3.83
2022-11-18T18:04:42.918Z,4.72
2022-11-18T18:09:47.276Z,4.28
2022-11-18T18:14:50.060Z,3.13
2022-11-18T18:19:52.836Z,3.50
2022-11-18T18:24:57.024Z,3.40
2022-11-18T18:29:59.876Z,3.92
2022-11-18T18:35:02.666Z,3.88
2022-11-18T18:40:08.055Z,3.40
2022-11-18T18:45:29.324Z,3.60
2022-11-18T18:50:32.803Z,3.20
2022-11-18T18:55:41.934Z,4.50
2022-11-18T19:00:48.246Z,5.00
2022-11-18T19:06:22.259Z,4.43
2022-11-18T19:11:33.844Z,3.95
2022-11-18T19:16:37.778Z,2.65
2022-11-18T19:21:40.904Z,2.85
2022-11-18T19:26:45.590Z,2.63
2022-11-18T19:31:48.619Z,3.10
2022-11-18T19:36:51.533Z,2.50
2022-11-18T19:41:58.980Z,2.75
2022-11-18T19:47:01.832Z,2.97
2022-11-18T19:52:04.782Z,3.20
2022-11-18T19:57:09.090Z,2.85
2022-11-18T20:02:12.725Z,3.38
2022-11-18T20:07:15.671Z,3.15
2022-11-18T20:12:19.977Z,3.08
2022-11-18T20:17:47.048Z,3.42
2022-11-18T20:22:50.141Z,3.30
2022-11-18T20:27:54.841Z,3.22
2022-11-18T20:32:59.466Z,4.07
2022-11-18T20:38:02.703Z,4.80
2022-11-18T20:43:12.720Z,3.90
2022-11-18T20:48:15.617Z,5.00
2022-11-18T20:53:18.927Z,3.83
2022-11-18T20:58:24.462Z,4.53
2022-11-18T21:03:27.323Z,4.18
2022-11-18T21:08:30.457Z,4.65
2022-11-18T21:13:52.493Z,5.97
2022-11-18T21:18:56.131Z,6.63
2022-11-18T21:24:01.185Z,5.53
2022-11-18T21:29:07.953Z,6.15
2022-11-18T21:34:11.982Z,5.65
2022-11-18T21:39:15.362Z,6.10
2022-11-18T21:44:19.933Z,7.20
2022-11-18T21:49:23.321Z,6.00
2022-11-18T21:54:26.596Z,7.55
2022-11-18T21:59:30.789Z,13.63
2022-11-18T22:04:47.573Z,13.48
2022-11-18T22:09:50.484Z,11.13
2022-11-18T22:14:58.810Z,9.45
2022-11-18T22:25:04.748Z,6.00
2022-11-18T22:30:10.321Z,6.22
2022-11-18T22:35:13.251Z,5.57
2022-11-18T22:40:16.189Z,7.05
2022-11-18T22:45:20.525Z,6.82
2022-11-18T22:50:23.320Z,6.97
2022-11-18T22:55:26.088Z,7.63
2022-11-18T23:00:31.195Z,7.53
2022-11-18T23:05:36.613Z,6.18
2022-11-18T23:10:39.380Z,5.75
2022-11-18T23:15:43.654Z,6.63
2022-11-18T23:20:46.424Z,6.47
2022-11-18T23:25:49.240Z,7.30
2022-11-18T23:30:53.495Z,6.43
2022-11-18T23:35:56.373Z,6.30
2022-11-18T23:41:00.380Z,6.97
2022-11-18T23:46:05.494Z,7.28
2022-11-18T23:51:10.164Z,6.07
2022-11-18T23:56:15.168Z,4.78
